Time,TemperatureF,DewpointF,PressureIn,WindDirection,WindDirectionDegrees,WindSpeedMPH,WindSpeedGustMPH,Humidity,HourlyPrecipIn,Conditions,Clouds,dailyrainin,SoftwareType,DateUTC
2013-02-04 00:00:00,16.2,6.5,29.06,WSW,247,2.0,7.8,65,0.00,,,0.00,WUHU216WMR100,2013-02-04 05:00:00,
2013-02-04 00:01:00,16.2,6.5,29.06,NNW,337,3.1,7.8,65,0.00,,,0.00,WUHU216WMR100,2013-02-04 05:01:00,
2013-02-04 00:02:00,16.2,6.5,29.06,WNW,292,3.1,7.8,65,0.00,,,0.00,WUHU216WMR100,2013-02-04 05:02:00,
2013-02-04 00:03:00,16.0,6.4,29.06,SSW,202,1.6,7.8,65,0.00,,,0.00,WUHU216WMR100,2013-02-04 05:03:00,
2013-02-04 00:08:00,15.8,6.5,29.03,WNW,292,1.6,4.9,66,0.00,,,0.00,WUHU216WMR100,2013-02-04 05:08:00,
2013-02-04 00:13:00,16.0,6.7,29.03,West,270,2.7,4.3,66,0.00,,,0.00,WUHU216WMR100,2013-02-04 05:13:00,
2013-02-04 00:18:00,15.8,6.8,29.03,WSW,247,2.9,4.7,67,0.00,,,0.00,WUHU216WMR100,2013-02-04 05:18:00,
2013-02-04 00:23:00,15.6,7.0,29.03,NW,315,2.5,5.8,68,0.00,,,0.00,WUHU216WMR100,2013-02-04 05:23:00,
2013-02-04 00:28:00,15.3,6.4,29.03,West,270,1.3,5.8,67,0.00,,,0.00,WUHU216WMR100,2013-02-04 05:28:00,
2013-02-04 00:33:00,15.1,6.5,29.03,WSW,247,2.5,4.0,68,0.00,,,0.00,WUHU216WMR100,2013-02-04 05:33:00,
2013-02-04 00:38:00,14.7,6.1,29.03,WSW,247,2.5,4.0,68,0.00,,,0.00,WUHU216WMR100,2013-02-04 05:38:00,
2013-02-04 00:43:00,14.4,5.8,29.03,West,270,2.2,3.1,68,0.00,,,0.00,WUHU216WMR100,2013-02-04 05:43:00,
2013-02-04 00:48:00,14.2,5.6,29.03,NNW,337,1.3,2.9,68,0.00,,,0.00,WUHU216WMR100,2013-02-04 05:48:00,
2013-02-04 00:53:00,14.2,5.9,29.03,WSW,247,1.6,4.0,69,0.00,,,0.00,WUHU216WMR100,2013-02-04 05:53:00,
2013-02-04 00:58:00,14.2,5.9,29.03,West,270,1.6,4.0,69,0.00,,,0.00,WUHU216WMR100,2013-02-04 05:58:00,
2013-02-04 01:03:00,14.4,6.4,29.03,West,270,2.0,4.3,70,0.00,,,0.00,WUHU216WMR100,2013-02-04 06:03:00,
2013-02-04 01:08:00,14.9,7.5,29.03,WSW,247,2.9,5.6,72,0.00,,,0.00,WUHU216WMR100,2013-02-04 06:08:00,
2013-02-04 01:13:00,15.4,8.6,29.03,WSW,247,2.5,6.0,74,0.00,,,0.00,WUHU216WMR100,2013-02-04 06:13:00,
2013-02-04 01:18:00,15.8,9.0,29.03,WNW,292,2.2,6.0,74,0.00,,,0.00,WUHU216WMR100,2013-02-04 06:18:00,
2013-02-04 01:23:00,16.2,9.1,29.03,WNW,292,2.9,8.5,73,0.00,,,0.00,WUHU216WMR100,2013-02-04 06:23:00,
2013-02-04 01:28:00,16.2,8.8,29.03,WNW,292,1.6,8.5,72,0.00,,,0.00,WUHU216WMR100,2013-02-04 06:28:00,
2013-02-04 01:33:00,16.2,8.8,29.03,SW,225,3.1,5.8,72,0.00,,,0.00,WUHU216WMR100,2013-02-04 06:33:00,
2013-02-04 01:38:00,16.3,8.6,29.03,NNE,22,3.1,5.8,71,0.00,,,0.00,WUHU216WMR100,2013-02-04 06:38:00,
2013-02-04 01:43:00,16.5,8.8,29.03,West,270,2.0,4.3,71,0.00,,,0.00,WUHU216WMR100,2013-02-04 06:43:00,
2013-02-04 01:48:00,16.7,9.0,29.03,NNW,337,2.2,3.8,71,0.00,,,0.00,WUHU216WMR100,2013-02-04 06:48:00,
2013-02-04 01:53:00,16.7,8.7,29.03,NNW,337,3.1,5.4,70,0.00,,,0.00,WUHU216WMR100,2013-02-04 06:53:00,
2013-02-04 01:58:00,16.7,8.7,29.03,WSW,247,3.4,5.4,70,0.00,,,0.00,WUHU216WMR100,2013-02-04 06:58:00,
2013-02-04 02:03:00,16.5,8.5,29.03,WSW,247,2.2,4.9,70,0.00,,,0.00,WUHU216WMR100,2013-02-04 07:03:00,
2013-02-04 02:08:00,16.5,8.5,29.03,WSW,247,2.2,4.5,70,0.00,,,0.00,WUHU216WMR100,2013-02-04 07:08:00,
2013-02-04 02:13:00,16.7,8.7,29.03,SSW,202,2.7,4.5,70,0.00,,,0.00,WUHU216WMR100,2013-02-04 07:13:00,
2013-02-04 02:18:00,16.7,8.7,29.03,WSW,247,1.6,3.6,70,0.00,,,0.00,WUHU216WMR100,2013-02-04 07:18:00,
2013-02-04 02:23:00,16.7,8.7,29.03,WSW,247,1.3,3.4,70,0.00,,,0.00,WUHU216WMR100,2013-02-04 07:23:00,
2013-02-04 02:28:00,16.7,8.7,29.03,WSW,247,2.9,4.3,70,0.00,,,0.00,WUHU216WMR100,2013-02-04 07:28:00,
2013-02-04 02:33:00,16.7,8.7,29.03,WSW,247,2.2,4.3,70,0.00,,,0.00,WUHU216WMR100,2013-02-04 07:33:00,
2013-02-04 02:38:00,16.7,8.7,29.03,WSW,247,3.4,5.8,70,0.00,,,0.00,WUHU216WMR100,2013-02-04 07:38:00,
2013-02-04 02:43:00,16.9,8.9,29.03,NNW,337,3.4,5.8,70,0.00,,,0.00,WUHU216WMR100,2013-02-04 07:43:00,
2013-02-04 02:48:00,16.9,8.9,29.03,WSW,247,1.6,4.9,70,0.00,,,0.00,WUHU216WMR100,2013-02-04 07:48:00,
2013-02-04 02:53:00,16.9,8.9,29.03,SSW,202,2.9,4.7,70,0.00,,,0.00,WUHU216WMR100,2013-02-04 07:53:00,
2013-02-04 02:58:00,16.9,8.9,29.03,WNW,292,2.5,4.7,70,0.00,,,0.00,WUHU216WMR100,2013-02-04 07:58:00,
2013-02-04 03:03:00,16.9,8.9,29.03,WSW,247,2.7,5.4,70,0.00,,,0.00,WUHU216WMR100,2013-02-04 08:03:00,
2013-02-04 03:08:00,17.1,9.0,29.03,NW,315,3.1,5.6,70,0.00,,,0.00,WUHU216WMR100,2013-02-04 08:08:00,
2013-02-04 03:13:00,17.1,9.0,29.03,NNW,337,3.1,5.6,70,0.00,,,0.00,WUHU216WMR100,2013-02-04 08:13:00,
2013-02-04 03:18:00,17.1,9.0,29.03,WSW,247,1.3,5.4,70,0.00,,,0.00,WUHU216WMR100,2013-02-04 08:18:00,
2013-02-04 03:23:00,17.1,9.0,29.03,WSW,247,3.1,5.4,70,0.00,,,0.00,WUHU216WMR100,2013-02-04 08:23:00,
2013-02-04 03:28:00,17.4,9.3,29.03,WNW,292,2.0,4.9,70,0.00,,,0.00,WUHU216WMR100,2013-02-04 08:28:00,
2013-02-04 03:33:00,17.4,9.3,29.03,West,270,3.4,5.6,70,0.00,,,0.00,WUHU216WMR100,2013-02-04 08:33:00,
2013-02-04 03:38:00,17.4,9.3,29.03,ENE,67,2.7,5.6,70,0.00,,,0.00,WUHU216WMR100,2013-02-04 08:38:00,
2013-02-04 03:43:00,17.4,9.3,29.03,WSW,247,2.0,4.3,70,0.00,,,0.00,WUHU216WMR100,2013-02-04 08:43:00,
2013-02-04 03:48:00,17.4,9.3,29.03,WNW,292,2.7,5.6,70,0.00,,,0.00,WUHU216WMR100,2013-02-04 08:48:00,
2013-02-04 03:53:00,17.1,9.0,29.03,West,270,1.6,5.6,70,0.00,,,0.00,WUHU216WMR100,2013-02-04 08:53:00,
2013-02-04 03:58:00,16.9,8.9,29.03,WNW,292,1.6,4.0,70,0.00,,,0.00,WUHU216WMR100,2013-02-04 08:58:00,
2013-02-04 04:03:00,16.7,8.7,29.03,WNW,292,2.5,4.9,70,0.00,,,0.00,WUHU216WMR100,2013-02-04 09:03:00,
2013-02-04 04:08:00,16.3,8.3,29.03,WNW,292,1.3,4.9,70,0.00,,,0.00,WUHU216WMR100,2013-02-04 09:08:00,
2013-02-04 04:13:00,16.2,8.2,29.03,SSW,202,0.0,3.4,70,0.00,,,0.00,WUHU216WMR100,2013-02-04 09:13:00,
2013-02-04 04:18:00,16.0,8.0,29.03,WSW,247,2.5,3.6,70,0.00,,,0.00,WUHU216WMR100,2013-02-04 09:18:00,
2013-02-04 04:23:00,16.2,8.5,29.03,SW,225,2.5,4.0,71,0.00,,,0.00,WUHU216WMR100,2013-02-04 09:23:00,
2013-02-04 04:28:00,16.2,8.8,29.03,WSW,247,2.7,4.0,72,0.00,,,0.00,WUHU216WMR100,2013-02-04 09:28:00,
2013-02-04 04:33:00,15.8,8.4,29.03,WSW,247,1.6,3.4,72,0.00,,,0.00,WUHU216WMR100,2013-02-04 09:33:00,
2013-02-04 04:38:00,15.8,8.4,29.03,West,270,2.0,3.6,72,0.00,,,0.00,WUHU216WMR100,2013-02-04 09:38:00,
2013-02-04 04:43:00,15.6,8.2,29.03,SSW,202,0.0,3.6,72,0.00,,,0.00,WUHU216WMR100,2013-02-04 09:43:00,
2013-02-04 04:48:00,15.6,8.5,29.03,NNW,337,2.2,3.1,73,0.00,,,0.00,WUHU216WMR100,2013-02-04 09:48:00,
2013-02-04 04:53:00,15.8,8.7,29.00,West,270,1.1,3.4,73,0.00,,,0.00,WUHU216WMR100,2013-02-04 09:53:00,
2013-02-04 04:58:00,15.8,8.7,29.00,WSW,247,0.0,3.4,73,0.00,,,0.00,WUHU216WMR100,2013-02-04 09:58:00,
2013-02-04 05:03:00,16.0,8.9,29.00,West,270,2.0,3.1,73,0.00,,,0.00,WUHU216WMR100,2013-02-04 10:03:00,
2013-02-04 05:08:00,16.0,8.9,29.03,WNW,292,0.0,2.7,73,0.00,,,0.00,WUHU216WMR100,2013-02-04 10:08:00,
2013-02-04 05:13:00,16.0,8.9,29.03,WNW,292,0.9,2.7,73,0.00,,,0.00,WUHU216WMR100,2013-02-04 10:13:00,
2013-02-04 05:18:00,16.0,8.9,29.03,NNW,337,2.5,3.6,73,0.00,,,0.00,WUHU216WMR100,2013-02-04 10:18:00,
2013-02-04 05:23:00,15.8,8.7,29.00,NW,315,1.1,3.6,73,0.00,,,0.00,WUHU216WMR100,2013-02-04 10:23:00,
2013-02-04 05:28:00,15.4,8.3,29.00,SSW,202,0.0,2.5,73,0.00,,,0.00,WUHU216WMR100,2013-02-04 10:28:00,
2013-02-04 05:33:00,15.3,8.2,29.00,SSE,157,0.0,2.5,73,0.00,,,0.00,WUHU216WMR100,2013-02-04 10:33:00,
2013-02-04 05:38:00,15.1,8.0,29.00,NNW,337,0.0,2.7,73,0.00,,,0.00,WUHU216WMR100,2013-02-04 10:38:00,
2013-02-04 05:43:00,15.1,8.0,29.00,SW,225,2.0,4.0,73,0.00,,,0.00,WUHU216WMR100,2013-02-04 10:43:00,
2013-02-04 05:48:00,15.1,8.0,29.00,ESE,112,0.0,4.0,73,0.00,,,0.00,WUHU216WMR100,2013-02-04 10:48:00,
2013-02-04 05:53:00,15.1,8.3,29.03,SSE,157,1.3,2.5,74,0.00,,,0.00,WUHU216WMR100,2013-02-04 10:53:00,
2013-02-04 05:58:00,14.9,7.8,29.03,SSE,157,0.0,2.5,73,0.00,,,0.00,WUHU216WMR100,2013-02-04 10:58:00,
2013-02-04 06:03:00,14.5,7.5,29.03,SSE,157,0.0,2.9,73,0.00,,,0.00,WUHU216WMR100,2013-02-04 11:03:00,
2013-02-04 06:08:00,14.5,7.8,29.00,SSE,157,1.6,2.9,74,0.00,,,0.00,WUHU216WMR100,2013-02-04 11:08:00,
2013-02-04 06:13:00,14.7,8.5,29.00,South,180,2.7,3.1,76,0.00,,,0.00,WUHU216WMR100,2013-02-04 11:13:00,
2013-02-04 06:18:00,14.9,9.0,29.00,SSE,157,2.2,4.0,77,0.00,,,0.00,WUHU216WMR100,2013-02-04 11:18:00,
2013-02-04 06:23:00,15.1,9.5,29.03,SSE,157,2.0,4.0,78,0.00,,,0.00,WUHU216WMR100,2013-02-04 11:23:00,
2013-02-04 06:28:00,15.1,9.5,29.03,SSE,157,1.3,2.9,78,0.00,,,0.00,WUHU216WMR100,2013-02-04 11:28:00,
2013-02-04 06:33:00,15.3,9.7,29.03,SSW,202,2.0,3.4,78,0.00,,,0.00,WUHU216WMR100,2013-02-04 11:33:00,
2013-02-04 06:38:00,15.4,9.8,29.03,SSE,157,2.0,3.6,78,0.00,,,0.00,WUHU216WMR100,2013-02-04 11:38:00,
2013-02-04 06:43:00,15.6,10.0,29.03,SSE,157,1.3,3.6,78,0.00,,,0.00,WUHU216WMR100,2013-02-04 11:43:00,
2013-02-04 06:48:00,15.8,10.2,29.03,WSW,247,2.0,3.1,78,0.00,,,0.00,WUHU216WMR100,2013-02-04 11:48:00,
2013-02-04 06:53:00,16.0,10.4,29.03,South,180,1.6,3.6,78,0.00,,,0.00,WUHU216WMR100,2013-02-04 11:53:00,
2013-02-04 06:58:00,16.2,10.6,29.03,South,180,1.3,3.6,78,0.00,,,0.00,WUHU216WMR100,2013-02-04 11:58:00,
2013-02-04 07:03:00,16.2,10.6,29.03,SSW,202,1.3,3.6,78,0.00,,,0.00,WUHU216WMR100,2013-02-04 12:03:00,
2013-02-04 07:08:00,16.5,10.8,29.03,SSE,157,1.3,3.6,78,0.00,,,0.00,WUHU216WMR100,2013-02-04 12:08:00,
2013-02-04 07:13:00,16.5,10.8,29.03,SSW,202,2.5,3.6,78,0.00,,,0.00,WUHU216WMR100,2013-02-04 12:13:00,
2013-02-04 07:18:00,16.5,10.8,29.03,WSW,247,1.6,3.6,78,0.00,,,0.00,WUHU216WMR100,2013-02-04 12:18:00,
2013-02-04 07:23:00,16.7,11.0,29.03,WSW,247,1.6,3.4,78,0.00,,,0.00,WUHU216WMR100,2013-02-04 12:23:00,
2013-02-04 07:28:00,16.7,11.3,29.03,SSW,202,2.5,4.9,79,0.00,,,0.00,WUHU216WMR100,2013-02-04 12:28:00,
2013-02-04 07:33:00,16.5,11.1,29.03,SSW,202,1.3,4.9,79,0.00,,,0.00,WUHU216WMR100,2013-02-04 12:33:00,
2013-02-04 07:38:00,16.3,10.7,29.03,WSW,247,2.2,4.0,78,0.00,,,0.00,WUHU216WMR100,2013-02-04 12:38:00,
2013-02-04 07:43:00,16.3,10.9,29.03,SSE,157,1.3,4.0,79,0.00,,,0.00,WUHU216WMR100,2013-02-04 12:43:00,
2013-02-04 07:49:00,16.2,10.8,29.03,WNW,292,2.0,3.8,79,0.00,,,0.00,WUHU216WMR100,2013-02-04 12:49:00,
2013-02-04 07:54:00,16.5,11.1,29.03,SSW,202,1.1,3.1,79,0.00,,,0.00,WUHU216WMR100,2013-02-04 12:54:00,
2013-02-04 07:59:00,16.7,11.3,29.03,SSW,202,2.2,4.9,79,0.00,,,0.00,WUHU216WMR100,2013-02-04 12:59:00,
2013-02-04 08:04:00,16.9,11.8,29.03,SSW,202,2.0,4.9,80,0.00,,,0.00,WUHU216WMR100,2013-02-04 13:04:00,
2013-02-04 08:09:00,17.2,12.1,29.03,SSE,157,2.7,4.9,80,0.00,,,0.00,WUHU216WMR100,2013-02-04 13:09:00,
2013-02-04 08:14:00,17.8,12.7,29.03,SSW,202,2.5,4.0,80,0.00,,,0.00,WUHU216WMR100,2013-02-04 13:14:00,
2013-02-04 08:19:00,18.1,13.0,29.00,SSE,157,1.1,3.8,80,0.00,,,0.00,WUHU216WMR100,2013-02-04 13:19:00,
2013-02-04 08:24:00,18.5,13.1,29.00,SSE,157,2.0,3.4,79,0.00,,,0.00,WUHU216WMR100,2013-02-04 13:24:00,
2013-02-04 08:29:00,19.0,13.6,29.00,SSW,202,2.9,3.8,79,0.00,,,0.00,WUHU216WMR100,2013-02-04 13:29:00,
2013-02-04 08:34:00,19.0,13.3,29.03,SSE,157,2.2,4.3,78,0.00,,,0.00,WUHU216WMR100,2013-02-04 13:34:00,
2013-02-04 08:39:00,19.4,13.4,29.03,SSW,202,3.4,5.4,77,0.00,,,0.00,WUHU216WMR100,2013-02-04 13:39:00,
2013-02-04 08:44:00,19.6,13.0,29.03,SSW,202,3.4,5.4,75,0.00,,,0.00,WUHU216WMR100,2013-02-04 13:44:00,
2013-02-04 08:49:00,20.3,13.7,29.00,SE,135,1.6,4.3,75,0.00,,,0.00,WUHU216WMR100,2013-02-04 13:49:00,
2013-02-04 08:54:00,20.5,13.9,29.00,SSW,202,2.5,3.8,75,0.00,,,0.00,WUHU216WMR100,2013-02-04 13:54:00,
2013-02-04 08:59:00,20.7,13.8,29.00,SW,225,2.5,3.8,74,0.00,,,0.00,WUHU216WMR100,2013-02-04 13:59:00,
2013-02-04 09:04:00,21.0,13.7,29.00,WSW,247,1.6,3.4,73,0.00,,,0.00,WUHU216WMR100,2013-02-04 14:04:00,
2013-02-04 09:09:00,21.0,13.4,29.00,SSE,157,1.6,5.4,72,0.00,,,0.00,WUHU216WMR100,2013-02-04 14:09:00,
2013-02-04 09:14:00,21.2,13.3,29.00,WSW,247,2.2,5.4,71,0.00,,,0.00,WUHU216WMR100,2013-02-04 14:14:00,
2013-02-04 09:19:00,21.2,13.0,29.00,SSW,202,4.0,6.3,70,0.00,,,0.00,WUHU216WMR100,2013-02-04 14:19:00,
2013-02-04 09:24:00,21.7,13.5,29.00,ESE,112,3.8,6.3,70,0.00,,,0.00,WUHU216WMR100,2013-02-04 14:24:00,
2013-02-04 09:29:00,21.7,13.1,29.00,SSW,202,2.0,4.9,69,0.00,,,0.00,WUHU216WMR100,2013-02-04 14:29:00,
2013-02-04 09:34:00,21.9,13.3,29.00,SSE,157,2.5,4.9,69,0.00,,,0.00,WUHU216WMR100,2013-02-04 14:34:00,
2013-02-04 09:39:00,22.5,13.6,29.00,SSE,157,3.1,5.6,68,0.00,,,0.00,WUHU216WMR100,2013-02-04 14:39:00,
2013-02-04 09:45:00,22.6,13.3,29.00,West,270,2.9,6.5,67,0.00,,,0.00,WUHU216WMR100,2013-02-04 14:45:00,
2013-02-04 09:50:00,22.5,12.9,29.00,SSW,202,3.1,6.5,66,0.00,,,0.00,WUHU216WMR100,2013-02-04 14:50:00,
2013-02-04 09:55:00,22.8,13.5,29.00,SSW,202,3.6,4.7,67,0.00,,,0.00,WUHU216WMR100,2013-02-04 14:55:00,
2013-02-04 10:00:00,23.7,13.7,29.00,SSE,157,2.5,5.6,65,0.00,,,0.00,WUHU216WMR100,2013-02-04 15:00:00,
2013-02-04 10:05:00,24.3,13.6,29.00,SSW,202,2.2,5.8,63,0.00,,,0.00,WUHU216WMR100,2013-02-04 15:05:00,
2013-02-04 10:10:00,24.4,13.3,29.00,SSE,157,2.7,5.8,62,0.00,,,0.00,WUHU216WMR100,2013-02-04 15:10:00,
2013-02-04 10:15:00,24.3,12.8,29.00,SSW,202,3.6,5.8,61,0.00,,,0.00,WUHU216WMR100,2013-02-04 15:15:00,
2013-02-04 10:20:00,25.3,13.8,28.97,SSE,157,2.9,5.6,61,0.00,,,0.00,WUHU216WMR100,2013-02-04 15:20:00,
2013-02-04 10:25:00,25.2,13.3,28.97,SSW,202,3.4,6.5,60,0.00,,,0.00,WUHU216WMR100,2013-02-04 15:25:00,
2013-02-04 10:30:00,26.1,13.8,28.97,WSW,247,2.9,6.5,59,0.00,,,0.00,WUHU216WMR100,2013-02-04 15:30:00,
2013-02-04 10:35:00,27.0,14.6,28.97,SSW,202,2.0,5.4,59,0.00,,,0.00,WUHU216WMR100,2013-02-04 15:35:00,
2013-02-04 10:40:00,26.2,13.0,28.97,SSW,202,3.1,5.8,57,0.00,,,0.00,WUHU216WMR100,2013-02-04 15:40:00,
2013-02-04 10:45:00,26.1,12.5,28.97,WSW,247,3.1,5.8,56,0.00,,,0.00,WUHU216WMR100,2013-02-04 15:45:00,
2013-02-04 10:50:00,27.0,13.8,28.97,SSE,157,2.5,5.6,57,0.00,,,0.00,WUHU216WMR100,2013-02-04 15:50:00,
2013-02-04 10:55:00,26.2,12.6,28.97,SSE,157,3.1,5.4,56,0.00,,,0.00,WUHU216WMR100,2013-02-04 15:55:00,
2013-02-04 11:00:00,26.2,13.0,28.97,SSW,202,2.5,5.4,57,0.00,,,0.00,WUHU216WMR100,2013-02-04 16:00:00,
2013-02-04 11:05:00,26.1,13.4,28.97,SSW,202,3.6,4.3,58,0.00,,,0.00,WUHU216WMR100,2013-02-04 16:05:00,
2013-02-04 11:10:00,26.1,13.4,28.97,SSE,157,3.1,6.0,58,0.00,,,0.00,WUHU216WMR100,2013-02-04 16:10:00,
2013-02-04 11:15:00,27.0,14.2,28.97,ESE,112,2.9,6.0,58,0.00,,,0.00,WUHU216WMR100,2013-02-04 16:15:00,
2013-02-04 11:20:00,26.4,13.2,28.97,SSW,202,3.8,6.0,57,0.00,,,0.00,WUHU216WMR100,2013-02-04 16:20:00,
2013-02-04 11:25:00,27.0,14.2,28.97,WSW,247,2.7,6.0,58,0.00,,,0.00,WUHU216WMR100,2013-02-04 16:25:00,
2013-02-04 11:30:00,26.8,14.0,28.97,WSW,247,3.8,4.9,58,0.00,,,0.00,WUHU216WMR100,2013-02-04 16:30:00,
2013-02-04 11:35:00,27.1,14.3,28.97,SSW,202,2.7,4.9,58,0.00,,,0.00,WUHU216WMR100,2013-02-04 16:35:00,
2013-02-04 11:40:00,27.5,15.1,28.97,SSW,202,2.2,5.4,59,0.00,,,0.00,WUHU216WMR100,2013-02-04 16:40:00,
2013-02-04 11:45:00,27.3,14.9,28.97,SSE,157,3.6,5.4,59,0.00,,,0.00,WUHU216WMR100,2013-02-04 16:45:00,
2013-02-04 11:50:00,27.5,15.1,28.97,SSW,202,3.6,4.9,59,0.00,,,0.00,WUHU216WMR100,2013-02-04 16:50:00,
2013-02-04 11:55:00,28.4,15.9,28.97,SSW,202,3.1,4.9,59,0.00,,,0.00,WUHU216WMR100,2013-02-04 16:55:00,
2013-02-04 12:00:00,28.4,15.5,28.97,WSW,247,3.1,6.7,58,0.00,,,0.00,WUHU216WMR100,2013-02-04 17:00:00,
2013-02-04 12:05:00,27.9,15.1,28.97,SSE,157,2.9,6.7,58,0.00,,,0.00,WUHU216WMR100,2013-02-04 17:05:00,
2013-02-04 12:11:00,28.2,15.7,28.97,WSW,247,2.9,5.6,59,0.00,,,0.00,WUHU216WMR100,2013-02-04 17:11:00,
2013-02-04 12:16:00,28.4,15.9,28.97,SSW,202,2.5,5.6,59,0.00,,,0.00,WUHU216WMR100,2013-02-04 17:16:00,
2013-02-04 12:21:00,28.4,15.5,28.97,SSW,202,2.7,4.7,58,0.00,,,0.00,WUHU216WMR100,2013-02-04 17:21:00,
2013-02-04 12:27:00,27.7,14.9,28.97,SSE,157,2.9,4.3,58,0.00,,,0.00,WUHU216WMR100,2013-02-04 17:27:00,
2013-02-04 12:32:00,27.9,15.5,28.97,SSE,157,2.0,4.3,59,0.00,,,0.00,WUHU216WMR100,2013-02-04 17:32:00,
2013-02-04 12:37:00,27.7,15.7,28.97,SSE,157,2.7,4.0,60,0.00,,,0.00,WUHU216WMR100,2013-02-04 17:37:00,
2013-02-04 12:42:00,27.3,15.7,28.97,SSE,157,2.0,3.8,61,0.00,,,0.00,WUHU216WMR100,2013-02-04 17:42:00,
2013-02-04 12:47:00,27.7,16.0,28.97,SSE,157,2.0,3.6,61,0.00,,,0.00,WUHU216WMR100,2013-02-04 17:47:00,
2013-02-04 12:52:00,27.5,16.2,28.94,SSW,202,2.0,3.8,62,0.00,,,0.00,WUHU216WMR100,2013-02-04 17:52:00,
2013-02-04 12:57:00,28.2,17.3,28.94,SE,135,0.0,3.8,63,0.00,,,0.00,WUHU216WMR100,2013-02-04 17:57:00,
2013-02-04 13:02:00,28.0,17.1,28.94,South,180,2.5,3.8,63,0.00,,,0.00,WUHU216WMR100,2013-02-04 18:02:00,
2013-02-04 13:07:00,27.1,16.2,28.97,SSE,157,3.8,4.3,63,0.00,,,0.00,WUHU216WMR100,2013-02-04 18:07:00,
2013-02-04 13:12:00,27.0,16.1,28.97,WSW,247,1.3,4.5,63,0.00,,,0.00,WUHU216WMR100,2013-02-04 18:12:00,
2013-02-04 13:17:00,27.9,0.0,28.97,SSW,202,2.7,4.5,64,0.00,,,0.00,WUHU216WMR100,2013-02-04 18:17:00,
2013-02-04 13:22:00,28.2,0.0,28.94,WSW,247,3.4,3.4,63,0.00,,,0.00,WUHU216WMR100,2013-02-04 18:22:00,
2013-02-04 13:27:00,28.6,17.3,28.94,WSW,247,2.0,3.4,62,0.00,,,0.00,WUHU216WMR100,2013-02-04 18:27:00,
2013-02-04 13:32:00,28.6,17.3,28.94,NNW,337,2.5,3.8,62,0.00,,,0.00,WUHU216WMR100,2013-02-04 18:32:00,
2013-02-04 13:37:00,28.9,17.6,28.91,WNW,292,1.6,3.8,62,0.00,,,0.00,WUHU216WMR100,2013-02-04 18:37:00,
2013-02-04 13:42:00,27.9,17.0,28.91,SSW,202,1.3,3.1,63,0.00,,,0.00,WUHU216WMR100,2013-02-04 18:42:00,
2013-02-04 13:47:00,27.7,16.8,28.91,SSE,157,1.6,3.1,63,0.00,,,0.00,WUHU216WMR100,2013-02-04 18:47:00,
2013-02-04 13:52:00,28.6,18.0,28.91,ESE,112,0.0,2.5,64,0.00,,,0.00,WUHU216WMR100,2013-02-04 18:52:00,
2013-02-04 13:57:00,27.7,17.2,28.91,SE,135,2.0,2.5,64,0.00,,,0.00,WUHU216WMR100,2013-02-04 18:57:00,
2013-02-04 14:02:00,28.0,18.2,28.91,ESE,112,1.6,2.9,66,0.00,,,0.00,WUHU216WMR100,2013-02-04 19:02:00,
2013-02-04 14:07:00,28.2,18.4,28.91,SE,135,1.3,2.9,66,0.00,,,0.00,WUHU216WMR100,2013-02-04 19:07:00,
2013-02-04 14:12:00,28.9,19.4,28.91,SSE,157,0.9,2.7,67,0.00,,,0.00,WUHU216WMR100,2013-02-04 19:12:00,
2013-02-04 14:17:00,28.9,19.0,28.91,SSE,157,1.3,2.7,66,0.00,,,0.00,WUHU216WMR100,2013-02-04 19:17:00,
2013-02-04 14:22:00,28.6,18.4,28.91,SSE,157,2.5,3.1,65,0.00,,,0.00,WUHU216WMR100,2013-02-04 19:22:00,
2013-02-04 14:27:00,29.1,18.9,28.91,SSE,157,2.0,3.1,65,0.00,,,0.00,WUHU216WMR100,2013-02-04 19:27:00,
2013-02-04 14:32:00,28.6,18.7,28.91,SSE,157,2.0,2.5,66,0.00,,,0.00,WUHU216WMR100,2013-02-04 19:32:00,
2013-02-04 14:37:00,28.8,18.9,28.88,SSE,157,1.6,2.5,66,0.00,,,0.00,WUHU216WMR100,2013-02-04 19:37:00,
2013-02-04 14:42:00,28.6,18.7,28.88,SSW,202,2.2,2.5,66,0.00,,,0.00,WUHU216WMR100,2013-02-04 19:42:00,
2013-02-04 14:47:00,28.2,18.7,28.88,SSE,157,2.5,2.7,67,0.00,,,0.00,WUHU216WMR100,2013-02-04 19:47:00,
2013-02-04 14:52:00,28.0,18.5,28.88,SSE,157,2.7,3.4,67,0.00,,,0.00,WUHU216WMR100,2013-02-04 19:52:00,
2013-02-04 14:57:00,27.9,18.4,28.88,SSE,157,1.6,3.6,67,0.00,,,0.00,WUHU216WMR100,2013-02-04 19:57:00,
2013-02-04 15:02:00,28.0,18.9,28.88,SSE,157,2.7,3.6,68,0.00,,,0.00,WUHU216WMR100,2013-02-04 20:02:00,
2013-02-04 15:07:00,28.0,18.9,28.88,SSE,157,0.9,3.1,68,0.00,,,0.00,WUHU216WMR100,2013-02-04 20:07:00,
2013-02-04 15:12:00,27.9,19.1,28.88,ESE,112,1.6,2.9,69,0.00,,,0.00,WUHU216WMR100,2013-02-04 20:12:00,
2013-02-04 15:17:00,27.9,19.4,28.88,ESE,112,2.0,2.7,70,0.00,,,0.00,WUHU216WMR100,2013-02-04 20:17:00,
2013-02-04 15:22:00,27.5,19.1,28.88,SSW,202,3.4,4.0,70,0.00,,,0.00,WUHU216WMR100,2013-02-04 20:22:00,
2013-02-04 15:27:00,27.7,18.9,28.88,ESE,112,0.0,4.0,69,0.00,,,0.00,WUHU216WMR100,2013-02-04 20:27:00,
2013-02-04 15:32:00,27.5,18.7,28.88,ESE,112,1.6,3.8,69,0.00,,,0.00,WUHU216WMR100,2013-02-04 20:32:00,
2013-02-04 15:37:00,27.3,18.9,28.85,SE,135,2.2,3.8,70,0.00,,,0.00,WUHU216WMR100,2013-02-04 20:37:00,
2013-02-04 15:42:00,27.5,19.4,28.85,SSE,157,2.0,3.1,71,0.00,,,0.00,WUHU216WMR100,2013-02-04 20:42:00,
2013-02-04 15:47:00,27.3,19.5,28.85,SSE,157,2.0,3.4,72,0.00,,,0.00,WUHU216WMR100,2013-02-04 20:47:00,
2013-02-04 15:52:00,27.1,19.3,28.85,SSE,157,2.0,3.6,72,0.00,,,0.00,WUHU216WMR100,2013-02-04 20:52:00,
2013-02-04 15:57:00,27.0,19.2,28.85,SSE,157,2.2,3.8,72,0.00,,,0.00,WUHU216WMR100,2013-02-04 20:57:00,
2013-02-04 16:02:00,26.8,19.3,28.85,SSW,202,2.5,3.8,73,0.00,,,0.00,WUHU216WMR100,2013-02-04 21:02:00,
2013-02-04 16:07:00,26.4,19.3,28.85,SSE,157,2.9,4.0,74,0.00,,,0.00,WUHU216WMR100,2013-02-04 21:07:00,
2013-02-04 16:12:00,26.2,19.4,28.85,SSE,157,2.7,4.0,75,0.00,,,0.00,WUHU216WMR100,2013-02-04 21:12:00,
2013-02-04 16:17:00,26.1,19.6,28.85,SE,135,2.5,3.6,76,0.00,,,0.00,WUHU216WMR100,2013-02-04 21:17:00,
2013-02-04 16:22:00,26.1,19.6,28.85,SSE,157,2.5,3.4,76,0.00,,,0.00,WUHU216WMR100,2013-02-04 21:22:00,
2013-02-04 16:27:00,26.1,19.9,28.85,ESE,112,2.5,2.9,77,0.00,,,0.00,WUHU216WMR100,2013-02-04 21:27:00,
2013-02-04 16:32:00,26.1,19.9,28.85,SE,135,0.9,3.1,77,0.00,,,0.00,WUHU216WMR100,2013-02-04 21:32:00,
2013-02-04 16:37:00,25.9,19.7,28.85,ESE,112,1.6,3.1,77,0.00,,,0.00,WUHU216WMR100,2013-02-04 21:37:00,
2013-02-04 16:42:00,25.9,20.0,28.85,ESE,112,0.0,3.1,78,0.00,,,0.00,WUHU216WMR100,2013-02-04 21:42:00,
2013-02-04 16:47:00,25.7,19.8,28.85,ESE,112,1.6,3.1,78,0.00,,,0.00,WUHU216WMR100,2013-02-04 21:47:00,
2013-02-04 16:52:00,25.7,20.1,28.85,SSE,157,1.6,2.7,79,0.00,,,0.00,WUHU216WMR100,2013-02-04 21:52:00,
2013-02-04 16:57:00,25.5,20.2,28.85,ESE,112,2.7,3.4,80,0.00,,,0.00,WUHU216WMR100,2013-02-04 21:57:00,
2013-02-04 17:02:00,25.5,20.2,28.85,ESE,112,0.9,3.4,80,0.00,,,0.00,WUHU216WMR100,2013-02-04 22:02:00,
2013-02-04 17:07:00,25.5,20.2,28.85,East,90,2.5,2.9,80,0.00,,,0.00,WUHU216WMR100,2013-02-04 22:07:00,
2013-02-04 17:12:00,25.3,20.3,28.85,ESE,112,2.7,3.6,81,0.00,,,0.00,WUHU216WMR100,2013-02-04 22:12:00,
2013-02-04 17:17:00,25.3,20.0,28.85,ESE,112,0.9,3.6,80,0.00,,,0.00,WUHU216WMR100,2013-02-04 22:17:00,
2013-02-04 17:22:00,25.3,20.0,28.85,ESE,112,0.0,2.7,80,0.00,,,0.00,WUHU216WMR100,2013-02-04 22:22:00,
2013-02-04 17:27:00,25.3,20.0,28.85,ESE,112,0.0,1.6,80,0.00,,,0.00,WUHU216WMR100,2013-02-04 22:27:00,
2013-02-04 17:34:00,25.2,19.9,28.85,ESE,112,1.1,2.5,80,0.00,,,0.00,WUHU216WMR100,2013-02-04 22:34:00,
2013-02-04 17:39:00,25.0,20.0,28.85,ESE,112,0.0,2.5,81,0.00,,,0.00,WUHU216WMR100,2013-02-04 22:39:00,
2013-02-04 17:44:00,25.0,20.0,28.85,ESE,112,0.0,2.7,81,0.00,,,0.00,WUHU216WMR100,2013-02-04 22:44:00,
2013-02-04 17:49:00,25.0,20.3,28.85,ESE,112,2.0,2.9,82,0.00,,,0.00,WUHU216WMR100,2013-02-04 22:49:00,
2013-02-04 17:54:00,25.0,20.3,28.85,ESE,112,1.1,2.9,82,0.00,,,0.00,WUHU216WMR100,2013-02-04 22:54:00,
2013-02-04 17:59:00,24.8,20.4,28.85,ESE,112,0.0,2.9,83,0.00,,,0.00,WUHU216WMR100,2013-02-04 22:59:00,
2013-02-04 18:04:00,24.8,20.4,28.85,ESE,112,0.0,2.9,83,0.00,,,0.00,WUHU216WMR100,2013-02-04 23:04:00,
2013-02-04 18:09:00,24.8,20.6,28.85,ESE,112,0.0,2.9,84,0.00,,,0.00,WUHU216WMR100,2013-02-04 23:09:00,
2013-02-04 18:14:00,24.8,20.6,28.85,ESE,112,1.1,1.3,84,0.00,,,0.00,WUHU216WMR100,2013-02-04 23:14:00,
2013-02-04 18:19:00,24.8,20.9,28.85,ESE,112,0.0,2.0,85,0.00,,,0.00,WUHU216WMR100,2013-02-04 23:19:00,
2013-02-04 18:24:00,24.6,21.2,28.85,ESE,112,2.0,2.0,87,0.00,,,0.00,WUHU216WMR100,2013-02-04 23:24:00,
2013-02-04 18:29:00,24.8,21.2,28.85,ESE,112,1.6,2.7,86,0.00,,,0.00,WUHU216WMR100,2013-02-04 23:29:00,
2013-02-04 18:34:00,24.8,20.9,28.85,ESE,112,1.3,2.7,85,0.00,,,0.00,WUHU216WMR100,2013-02-04 23:34:00,
2013-02-04 18:39:00,24.8,21.2,28.85,ESE,112,1.1,1.6,86,0.00,,,0.00,WUHU216WMR100,2013-02-04 23:39:00,
2013-02-04 18:44:00,24.8,21.2,28.85,ESE,112,0.9,2.2,86,0.00,,,0.00,WUHU216WMR100,2013-02-04 23:44:00,
2013-02-04 18:49:00,24.8,21.4,28.85,ESE,112,0.0,2.2,87,0.00,,,0.00,WUHU216WMR100,2013-02-04 23:49:00,
2013-02-04 18:54:00,24.8,21.2,28.85,ESE,112,0.0,2.0,86,0.00,,,0.00,WUHU216WMR100,2013-02-04 23:54:00,
2013-02-04 18:59:00,24.8,21.2,28.85,ESE,112,0.0,0.0,86,0.00,,,0.00,WUHU216WMR100,2013-02-04 23:59:00,
2013-02-04 19:04:00,24.8,21.2,28.85,ESE,112,0.9,2.2,86,0.00,,,0.00,WUHU216WMR100,2013-02-05 00:04:00,
2013-02-04 19:09:00,24.8,21.2,28.85,ESE,112,0.0,2.2,86,0.00,,,0.00,WUHU216WMR100,2013-02-05 00:09:00,
2013-02-04 19:14:00,24.8,21.2,28.85,ESE,112,1.3,2.5,86,0.00,,,0.00,WUHU216WMR100,2013-02-05 00:14:00,
2013-02-04 19:19:00,24.8,21.4,28.85,ESE,112,1.1,2.5,87,0.00,,,0.00,WUHU216WMR100,2013-02-05 00:19:00,
2013-02-04 19:24:00,25.0,21.6,28.85,ESE,112,2.0,2.5,87,0.00,,,0.00,WUHU216WMR100,2013-02-05 00:24:00,
2013-02-04 19:29:00,25.0,21.4,28.85,ESE,112,0.0,2.5,86,0.00,,,0.00,WUHU216WMR100,2013-02-05 00:29:00,
2013-02-04 19:34:00,25.0,21.4,28.85,ESE,112,1.6,2.2,86,0.00,,,0.00,WUHU216WMR100,2013-02-05 00:34:00,
2013-02-04 19:39:00,25.0,21.4,28.85,ESE,112,0.9,2.2,86,0.00,,,0.00,WUHU216WMR100,2013-02-05 00:39:00,
2013-02-04 19:44:00,25.2,21.8,28.85,ESE,112,1.6,2.7,87,0.00,,,0.00,WUHU216WMR100,2013-02-05 00:44:00,
2013-02-04 19:49:00,25.2,21.8,28.85,ESE,112,0.0,2.7,87,0.00,,,0.00,WUHU216WMR100,2013-02-05 00:49:00,
2013-02-04 19:54:00,25.2,21.8,28.85,ESE,112,1.3,1.3,87,0.00,,,0.00,WUHU216WMR100,2013-02-05 00:54:00,
2013-02-04 19:59:00,25.2,21.8,28.85,ESE,112,0.0,1.3,87,0.00,,,0.00,WUHU216WMR100,2013-02-05 00:59:00,
2013-02-04 20:04:00,25.3,21.9,28.85,ESE,112,0.0,1.6,87,0.00,,,0.00,WUHU216WMR100,2013-02-05 01:04:00,
2013-02-04 20:09:00,25.3,21.9,28.85,ESE,112,1.1,1.6,87,0.00,,,0.00,WUHU216WMR100,2013-02-05 01:09:00,
2013-02-04 20:14:00,25.3,21.9,28.85,ESE,112,0.0,2.2,87,0.00,,,0.00,WUHU216WMR100,2013-02-05 01:14:00,
2013-02-04 20:19:00,25.3,21.9,28.85,ESE,112,1.6,2.9,87,0.00,,,0.00,WUHU216WMR100,2013-02-05 01:19:00,
2013-02-04 20:24:00,25.3,21.9,28.85,ESE,112,1.3,2.9,87,0.00,,,0.00,WUHU216WMR100,2013-02-05 01:24:00,
2013-02-04 20:29:00,25.3,21.9,28.85,ESE,112,0.9,2.9,87,0.00,,,0.00,WUHU216WMR100,2013-02-05 01:29:00,
2013-02-04 20:34:00,25.3,21.9,28.85,ESE,112,0.9,2.0,87,0.00,,,0.00,WUHU216WMR100,2013-02-05 01:34:00,
2013-02-04 20:39:00,25.5,22.4,28.85,ESE,112,0.0,1.6,88,0.00,,,0.00,WUHU216WMR100,2013-02-05 01:39:00,
2013-02-04 20:44:00,25.5,22.4,28.85,ESE,112,0.0,1.3,88,0.00,,,0.00,WUHU216WMR100,2013-02-05 01:44:00,
2013-02-04 20:49:00,25.7,22.6,28.85,ESE,112,0.0,0.0,88,0.00,,,0.00,WUHU216WMR100,2013-02-05 01:49:00,
2013-02-04 20:54:00,25.5,22.4,28.85,ESE,112,0.0,0.0,88,0.00,,,0.00,WUHU216WMR100,2013-02-05 01:54:00,
2013-02-04 20:59:00,25.7,22.3,28.85,ESE,112,0.0,0.0,87,0.00,,,0.00,WUHU216WMR100,2013-02-05 01:59:00,
2013-02-04 21:04:00,25.7,22.3,28.85,ESE,112,0.0,0.0,87,0.00,,,0.00,WUHU216WMR100,2013-02-05 02:04:00,
2013-02-04 21:09:00,25.7,22.3,28.85,ESE,112,0.0,0.0,87,0.00,,,0.00,WUHU216WMR100,2013-02-05 02:09:00,
2013-02-04 21:14:00,25.9,22.5,28.85,ESE,112,0.0,0.0,87,0.00,,,0.00,WUHU216WMR100,2013-02-05 02:14:00,
2013-02-04 21:19:00,25.9,22.5,28.85,ESE,112,0.0,0.0,87,0.00,,,0.00,WUHU216WMR100,2013-02-05 02:19:00,
2013-02-04 21:24:00,25.9,22.5,28.85,ESE,112,0.0,0.0,87,0.00,,,0.00,WUHU216WMR100,2013-02-05 02:24:00,
2013-02-04 21:29:00,25.9,22.8,28.85,ESE,112,0.0,0.0,88,0.00,,,0.00,WUHU216WMR100,2013-02-05 02:29:00,
2013-02-04 21:34:00,25.9,22.8,28.85,ESE,112,0.0,0.0,88,0.00,,,0.00,WUHU216WMR100,2013-02-05 02:34:00,
2013-02-04 21:39:00,25.9,22.5,28.85,ESE,112,0.0,0.0,87,0.00,,,0.00,WUHU216WMR100,2013-02-05 02:39:00,
2013-02-04 21:44:00,25.9,22.5,28.85,ESE,112,0.0,0.0,87,0.00,,,0.00,WUHU216WMR100,2013-02-05 02:44:00,
2013-02-04 21:49:00,25.9,22.5,28.85,ESE,112,0.0,0.0,87,0.00,,,0.00,WUHU216WMR100,2013-02-05 02:49:00,
2013-02-04 21:54:00,25.9,22.5,28.85,ESE,112,0.0,0.0,87,0.00,,,0.00,WUHU216WMR100,2013-02-05 02:54:00,
2013-02-04 21:59:00,25.9,22.5,28.85,ESE,112,0.0,0.0,87,0.00,,,0.00,WUHU216WMR100,2013-02-05 02:59:00,
2013-02-04 22:04:00,25.9,22.5,28.85,ESE,112,0.0,0.0,87,0.00,,,0.00,WUHU216WMR100,2013-02-05 03:04:00,
2013-02-04 22:09:00,25.9,22.5,28.85,ESE,112,0.0,0.0,87,0.00,,,0.00,WUHU216WMR100,2013-02-05 03:09:00,
2013-02-04 22:14:00,25.9,22.5,28.85,ESE,112,0.0,0.0,87,0.00,,,0.00,WUHU216WMR100,2013-02-05 03:14:00,
2013-02-04 22:19:00,25.9,22.5,28.85,ESE,112,0.0,0.0,87,0.00,,,0.00,WUHU216WMR100,2013-02-05 03:19:00,
2013-02-04 22:24:00,25.9,22.5,28.85,ESE,112,0.0,0.0,87,0.00,,,0.00,WUHU216WMR100,2013-02-05 03:24:00,
2013-02-04 22:30:00,26.1,22.7,28.85,ESE,112,0.0,0.0,87,0.00,,,0.00,WUHU216WMR100,2013-02-05 03:30:00,
2013-02-04 22:35:00,26.1,22.7,28.85,ESE,112,0.0,0.0,87,0.00,,,0.00,WUHU216WMR100,2013-02-05 03:35:00,
2013-02-04 22:40:00,26.1,22.7,28.85,ESE,112,0.0,0.0,87,0.00,,,0.00,WUHU216WMR100,2013-02-05 03:40:00,
2013-02-04 22:45:00,26.1,22.7,28.85,ESE,112,0.0,0.0,87,0.00,,,0.00,WUHU216WMR100,2013-02-05 03:45:00,
2013-02-04 22:50:00,26.1,22.7,28.85,ESE,112,0.0,0.0,87,0.00,,,0.00,WUHU216WMR100,2013-02-05 03:50:00,
2013-02-04 22:55:00,26.1,22.7,28.85,ESE,112,0.0,0.0,87,0.00,,,0.00,WUHU216WMR100,2013-02-05 03:55:00,
2013-02-04 23:00:00,26.1,22.7,28.85,ESE,112,0.0,0.0,87,0.00,,,0.00,WUHU216WMR100,2013-02-05 04:00:00,
2013-02-04 23:05:00,26.1,22.7,28.85,ESE,112,0.0,0.0,87,0.00,,,0.00,WUHU216WMR100,2013-02-05 04:05:00,
2013-02-04 23:10:00,26.1,22.7,28.85,ESE,112,0.0,0.0,87,0.00,,,0.00,WUHU216WMR100,2013-02-05 04:10:00,
2013-02-04 23:15:00,26.1,22.7,28.85,ESE,112,0.0,0.0,87,0.00,,,0.00,WUHU216WMR100,2013-02-05 04:15:00,
2013-02-04 23:20:00,26.1,23.0,28.85,ESE,112,0.0,0.0,88,0.00,,,0.00,WUHU216WMR100,2013-02-05 04:20:00,
2013-02-04 23:25:00,26.1,22.7,28.85,ESE,112,0.0,0.0,87,0.00,,,0.00,WUHU216WMR100,2013-02-05 04:25:00,
2013-02-04 23:30:00,26.1,22.7,28.85,ESE,112,0.0,0.0,87,0.00,,,0.00,WUHU216WMR100,2013-02-05 04:30:00,
2013-02-04 23:35:00,26.1,22.7,28.85,ESE,112,0.0,0.0,87,0.00,,,0.00,WUHU216WMR100,2013-02-05 04:35:00,
2013-02-04 23:42:00,26.1,22.7,28.85,ESE,112,0.0,0.0,87,0.00,,,0.00,WUHU216WMR100,2013-02-05 04:42:00,
2013-02-04 23:47:00,26.1,22.7,28.85,ESE,112,0.0,0.0,87,0.00,,,0.00,WUHU216WMR100,2013-02-05 04:47:00,
2013-02-04 23:52:00,26.1,23.0,28.85,ESE,112,0.0,0.0,88,0.00,,,0.00,WUHU216WMR100,2013-02-05 04:52:00,
2013-02-04 23:57:00,26.2,23.1,28.85,ESE,112,0.0,0.0,88,0.00,,,0.00,WUHU216WMR100,2013-02-05 04:57:00,